createdAt,value
2022-09-11T00:00:52.683Z,72.50
2022-09-11T00:03:21.509Z,72.40
2022-09-11T00:05:48.456Z,72.40
2022-09-11T00:08:18.209Z,72.50
2022-09-11T00:10:48.252Z,72.40
2022-09-11T00:13:22.373Z,72.40
2022-09-11T00:15:51.156Z,72.40
2022-09-11T00:18:23.352Z,72.40
2022-09-11T00:20:51.566Z,72.40
2022-09-11T00:23:19.900Z,72.40
2022-09-11T00:25:47.592Z,72.40
2022-09-11T00:28:19.913Z,72.40
2022-09-11T00:30:47.573Z,72.40
2022-09-11T00:33:15.595Z,72.50
2022-09-11T00:35:42.489Z,72.40
2022-09-11T00:38:12.121Z,72.40
2022-09-11T00:40:47.646Z,72.40
2022-09-11T00:43:16.629Z,72.40
2022-09-11T00:45:46.194Z,72.40
2022-09-11T00:48:20.166Z,72.40
2022-09-11T00:50:48.226Z,72.40
2022-09-11T00:53:17.813Z,72.40
2022-09-11T00:55:50.651Z,72.40
2022-09-11T00:58:22.296Z,72.40
2022-09-11T01:00:49.549Z,72.40
2022-09-11T01:03:16.335Z,72.40
2022-09-11T01:05:44.551Z,72.40
2022-09-11T01:08:11.422Z,72.40
2022-09-11T01:10:53.136Z,72.40
2022-09-11T01:13:43.876Z,72.40
2022-09-11T01:16:25.621Z,72.30
2022-09-11T01:19:06.904Z,72.40
2022-09-11T01:22:07.417Z,72.40
2022-09-11T01:24:56.437Z,72.40
2022-09-11T01:27:31.084Z,72.30
2022-09-11T01:30:07.210Z,72.30
2022-09-11T01:32:59.227Z,72.30
2022-09-11T01:35:32.370Z,72.40
2022-09-11T01:38:08.923Z,72.30
2022-09-11T01:40:54.048Z,72.30
2022-09-11T01:43:30.782Z,72.30
2022-09-11T01:45:59.761Z,72.30
2022-09-11T01:48:32.628Z,72.40
2022-09-11T01:51:01.145Z,72.30
2022-09-11T01:53:33.828Z,72.40
2022-09-11T01:56:08.036Z,72.40
2022-09-11T01:58:36.603Z,72.30
2022-09-11T02:01:10.101Z,72.30
2022-09-11T02:03:41.598Z,72.30
2022-09-11T02:06:16.950Z,72.30
2022-09-11T02:08:54.037Z,72.30
2022-09-11T02:11:21.314Z,72.30
2022-09-11T02:14:02.711Z,72.40
2022-09-11T02:16:42.378Z,72.30
2022-09-11T02:19:16.567Z,72.30
2022-09-11T02:21:44.612Z,72.30
2022-09-11T02:24:11.478Z,72.30
2022-09-11T02:26:45.767Z,72.30
2022-09-11T02:29:13.654Z,72.30
2022-09-11T02:31:41.741Z,72.30
2022-09-11T02:34:10.417Z,72.30
2022-09-11T02:37:04.387Z,72.30
2022-09-11T02:40:02.468Z,72.30
2022-09-11T02:42:48.014Z,72.40
2022-09-11T02:45:41.349Z,72.40
2022-09-11T02:48:52.255Z,72.30
2022-09-11T02:51:42.244Z,72.30
2022-09-11T02:54:50.281Z,72.30
2022-09-11T02:57:31.480Z,72.30
2022-09-11T03:00:01.491Z,72.30
2022-09-11T03:02:33.980Z,72.30
2022-09-11T03:05:00.665Z,72.30
2022-09-11T03:07:27.410Z,72.30
2022-09-11T03:09:54.175Z,72.30
2022-09-11T03:12:20.885Z,72.30
2022-09-11T03:14:48.583Z,72.30
2022-09-11T03:17:15.387Z,72.30
2022-09-11T03:19:42.067Z,72.30
2022-09-11T03:22:08.845Z,72.30
2022-09-11T03:24:35.631Z,72.30
2022-09-11T03:27:02.410Z,72.30
2022-09-11T03:29:29.126Z,72.30
2022-09-11T03:31:57.332Z,72.30
2022-09-11T03:34:24.403Z,72.20
2022-09-11T03:36:51.263Z,72.30
2022-09-11T03:39:18.348Z,72.30
2022-09-11T03:41:45.146Z,72.30
2022-09-11T03:44:14.915Z,72.30
2022-09-11T03:46:41.624Z,72.30
2022-09-11T03:49:08.414Z,72.20
2022-09-11T03:51:35.195Z,72.20
2022-09-11T03:54:02.654Z,72.30
2022-09-11T03:56:30.095Z,72.30
2022-09-11T03:58:58.649Z,72.30
2022-09-11T04:01:26.078Z,72.20
2022-09-11T04:03:53.064Z,72.20
2022-09-11T04:06:20.329Z,72.20
2022-09-11T04:08:47.024Z,72.20
2022-09-11T04:11:14.280Z,72.20
2022-09-11T04:13:42.159Z,72.30
2022-09-11T04:16:13.532Z,72.20
2022-09-11T04:18:41.547Z,72.20
2022-09-11T04:21:10.832Z,72.20
2022-09-11T04:23:38.684Z,72.20
2022-09-11T04:26:21.456Z,72.20
2022-09-11T04:28:48.408Z,72.20
2022-09-11T04:31:16.471Z,72.20
2022-09-11T04:33:44.291Z,72.20
2022-09-11T04:36:17.448Z,72.20
2022-09-11T04:38:45.441Z,72.20
2022-09-11T04:41:12.644Z,72.20
2022-09-11T04:43:40.510Z,72.20
2022-09-11T04:46:11.511Z,72.10
2022-09-11T04:48:51.608Z,72.20
2022-09-11T04:51:24.409Z,72.10
2022-09-11T04:53:52.282Z,72.10
2022-09-11T04:56:20.808Z,72.20
2022-09-11T04:58:56.522Z,72.10
2022-09-11T05:01:24.533Z,72.20
2022-09-11T05:03:52.392Z,72.10
2022-09-11T05:06:19.231Z,72.20
2022-09-11T05:08:46.788Z,72.10
2022-09-11T05:11:15.583Z,72.20
2022-09-11T05:13:43.531Z,72.20
2022-09-11T05:16:12.694Z,72.10
2022-09-11T05:18:41.011Z,72.10
2022-09-11T05:21:14.476Z,72.10
2022-09-11T05:23:42.621Z,72.20
2022-09-11T05:26:15.083Z,72.10
2022-09-11T05:28:42.090Z,72.60
2022-09-11T05:31:17.564Z,72.10
2022-09-11T05:33:45.320Z,72.10
2022-09-11T05:36:14.842Z,72.20
2022-09-11T05:38:41.874Z,72.20
2022-09-11T05:41:11.681Z,72.10
2022-09-11T05:43:39.949Z,72.10
2022-09-11T05:46:07.695Z,72.10
2022-09-11T05:48:36.937Z,72.10
2022-09-11T05:51:07.351Z,72.10
2022-09-11T05:53:34.591Z,72.10
2022-09-11T05:56:16.055Z,72.10
2022-09-11T05:58:46.651Z,72.10
2022-09-11T06:01:19.417Z,72.10
2022-09-11T06:03:48.544Z,72.10
2022-09-11T06:06:17.469Z,72.10
2022-09-11T06:08:44.503Z,72.10
2022-09-11T06:11:13.322Z,72.10
2022-09-11T06:13:42.344Z,72.10
2022-09-11T06:16:18.089Z,72.10
2022-09-11T06:18:49.479Z,72.10
2022-09-11T06:21:20.584Z,72.10
2022-09-11T06:23:51.908Z,72.10
2022-09-11T06:26:21.377Z,72.10
2022-09-11T06:28:49.010Z,72.10
2022-09-11T06:31:18.482Z,72.00
2022-09-11T06:33:46.681Z,72.10
2022-09-11T06:36:16.341Z,72.00
2022-09-11T06:38:44.462Z,72.00
2022-09-11T06:41:14.794Z,72.10
2022-09-11T06:43:42.645Z,72.00
2022-09-11T06:46:13.727Z,72.00
2022-09-11T06:48:41.717Z,72.00
2022-09-11T06:51:11.439Z,72.00
2022-09-11T06:53:39.175Z,72.00
2022-09-11T06:56:06.946Z,72.00
2022-09-11T06:58:34.122Z,72.00
2022-09-11T07:01:04.384Z,71.90
2022-09-11T07:03:32.257Z,71.90
2022-09-11T07:06:00.053Z,71.90
2022-09-11T07:08:27.413Z,72.00
2022-09-11T07:10:54.231Z,72.00
2022-09-11T07:13:24.189Z,72.00
2022-09-11T07:16:00.493Z,72.40
2022-09-11T07:18:31.949Z,71.90
2022-09-11T07:20:58.684Z,71.90
2022-09-11T07:23:25.459Z,71.90
2022-09-11T07:25:53.413Z,71.90
2022-09-11T07:28:20.123Z,71.90
2022-09-11T07:30:46.926Z,71.90
2022-09-11T07:33:13.995Z,71.90
2022-09-11T07:35:40.784Z,71.90
2022-09-11T07:38:07.464Z,71.90
2022-09-11T07:40:34.223Z,71.80
2022-09-11T07:43:01.004Z,71.90
2022-09-11T07:45:28.245Z,71.90
2022-09-11T07:47:55.667Z,71.80
2022-09-11T07:50:24.306Z,71.80
2022-09-11T07:52:51.118Z,71.90
2022-09-11T07:55:18.991Z,71.90
2022-09-11T07:57:46.573Z,71.90
2022-09-11T08:00:16.259Z,71.90
2022-09-11T08:02:43.083Z,71.90
2022-09-11T08:05:10.965Z,71.90
2022-09-11T08:07:37.761Z,71.90
2022-09-11T08:10:26.080Z,71.90
2022-09-11T08:12:54.736Z,71.80
2022-09-11T08:15:23.596Z,71.90
2022-09-11T08:17:51.753Z,71.80
2022-09-11T08:20:18.507Z,71.90
2022-09-11T08:22:45.251Z,71.80
2022-09-11T08:25:12.481Z,71.80
2022-09-11T08:27:39.244Z,71.80
2022-09-11T08:30:06.452Z,71.80
2022-09-11T08:32:33.139Z,71.80
2022-09-11T08:35:00.167Z,71.90
2022-09-11T08:37:26.888Z,71.90
2022-09-11T08:39:53.650Z,71.90
2022-09-11T08:42:20.429Z,71.80
2022-09-11T08:44:48.710Z,71.80
2022-09-11T08:47:20.450Z,71.80
2022-09-11T08:49:58.756Z,71.90
2022-09-11T08:52:25.606Z,71.90
2022-09-11T08:54:56.382Z,71.90
2022-09-11T08:57:30.796Z,71.90
2022-09-11T09:00:20.434Z,71.90
2022-09-11T09:03:08.685Z,71.90
2022-09-11T09:06:00.105Z,71.90
2022-09-11T09:08:38.946Z,71.90
2022-09-11T09:11:20.489Z,71.80
2022-09-11T09:14:16.617Z,71.80
2022-09-11T09:17:23.176Z,71.90
2022-09-11T09:20:00.615Z,71.80
2022-09-11T09:22:42.451Z,71.80
2022-09-11T09:25:20.260Z,71.90
2022-09-11T09:27:50.582Z,71.80
2022-09-11T09:30:22.013Z,71.70
2022-09-11T09:33:15.703Z,71.80
2022-09-11T09:35:44.421Z,71.80
2022-09-11T09:38:14.059Z,71.80
2022-09-11T09:41:09.808Z,71.70
2022-09-11T09:43:49.501Z,71.70
2022-09-11T09:46:34.367Z,71.70
2022-09-11T09:49:01.308Z,71.70
2022-09-11T09:51:28.293Z,71.80
2022-09-11T09:54:01.743Z,71.80
2022-09-11T09:56:31.586Z,71.80
2022-09-11T09:59:03.167Z,71.80
2022-09-11T10:01:46.520Z,71.80
2022-09-11T10:04:16.595Z,71.80
2022-09-11T10:06:48.276Z,71.90
2022-09-11T10:09:30.613Z,71.90
2022-09-11T10:12:12.754Z,71.80
2022-09-11T10:15:14.225Z,71.80
2022-09-11T10:17:40.938Z,71.80
2022-09-11T10:20:18.530Z,71.80
2022-09-11T10:22:49.479Z,71.80
2022-09-11T10:25:17.780Z,71.70
2022-09-11T10:27:59.116Z,71.70
2022-09-11T10:30:31.441Z,71.70
2022-09-11T10:33:03.283Z,71.80
2022-09-11T10:35:33.033Z,71.70
2022-09-11T10:38:18.209Z,71.70
2022-09-11T10:40:57.827Z,71.70
2022-09-11T10:43:33.228Z,71.70
2022-09-11T10:46:17.971Z,71.70
2022-09-11T10:48:55.161Z,71.80
2022-09-11T10:51:23.885Z,71.80
2022-09-11T10:54:38.641Z,71.80
2022-09-11T10:57:33.571Z,71.90
2022-09-11T11:00:13.269Z,71.90
2022-09-11T11:02:54.167Z,71.90
2022-09-11T11:05:33.095Z,71.90
2022-09-11T11:08:19.717Z,72.00
2022-09-11T11:11:11.127Z,72.00
2022-09-11T11:13:45.224Z,72.00
2022-09-11T11:16:56.469Z,72.00
2022-09-11T11:19:26.057Z,72.00
2022-09-11T11:22:14.018Z,72.00
2022-09-11T11:24:46.887Z,71.90
2022-09-11T11:27:33.257Z,71.90
2022-09-11T11:30:08.820Z,71.90
2022-09-11T11:32:59.684Z,71.90
2022-09-11T11:36:03.788Z,71.90
2022-09-11T11:38:41.689Z,71.90
2022-09-11T11:41:19.086Z,71.90
2022-09-11T11:43:48.823Z,72.10
2022-09-11T11:46:21.475Z,72.00
2022-09-11T11:48:58.859Z,72.00
2022-09-11T11:51:39.343Z,71.90
2022-09-11T11:54:28.032Z,72.10
2022-09-11T11:57:02.085Z,71.90
2022-09-11T11:59:55.693Z,71.80
2022-09-11T12:02:29.286Z,72.10
2022-09-11T12:05:05.322Z,71.80
2022-09-11T12:07:34.174Z,71.70
2022-09-11T12:10:02.938Z,71.40
2022-09-11T12:12:33.832Z,71.30
2022-09-11T12:15:09.984Z,71.20
2022-09-11T12:17:38.304Z,71.20
2022-09-11T12:20:31.671Z,71.10
2022-09-11T12:22:58.916Z,71.00
2022-09-11T12:25:38.090Z,70.80
2022-09-11T12:28:21.757Z,70.70
2022-09-11T12:31:15.749Z,70.70
2022-09-11T12:33:48.505Z,70.60
2022-09-11T12:36:18.254Z,70.70
2022-09-11T12:38:53.986Z,70.60
2022-09-11T12:41:28.244Z,70.60
2022-09-11T12:43:55.371Z,70.60
2022-09-11T12:46:21.998Z,70.60
2022-09-11T12:49:22.699Z,70.60
2022-09-11T12:52:00.095Z,70.50
2022-09-11T12:54:38.401Z,70.50
2022-09-11T12:57:19.177Z,70.50
2022-09-11T12:59:53.088Z,70.40
2022-09-11T13:02:34.650Z,70.30
2022-09-11T13:05:03.663Z,70.40
2022-09-11T13:07:41.819Z,70.40
2022-09-11T13:10:23.452Z,70.40
2022-09-11T13:12:53.987Z,70.40
2022-09-11T13:15:38.893Z,70.40
2022-09-11T13:18:35.450Z,70.40
2022-09-11T13:21:11.399Z,70.40
2022-09-11T13:23:38.213Z,70.30
2022-09-11T13:26:07.825Z,70.50
2022-09-11T13:28:44.756Z,70.50
2022-09-11T13:31:19.614Z,70.50
2022-09-11T13:33:51.813Z,70.70
2022-09-11T13:36:24.160Z,70.20
2022-09-11T13:38:56.036Z,70.00
2022-09-11T13:41:28.922Z,69.60
2022-09-11T13:43:58.721Z,68.50
2022-09-11T13:46:28.459Z,67.10
2022-09-11T13:49:18.242Z,65.30
2022-09-11T13:51:46.967Z,63.30
2022-09-11T13:54:33.131Z,62.10
2022-09-11T13:56:59.791Z,61.20
2022-09-11T13:59:48.065Z,60.30
2022-09-11T14:02:50.999Z,59.80
2022-09-11T14:05:31.846Z,59.40
2022-09-11T14:08:35.556Z,59.20
2022-09-11T14:11:11.794Z,59.90
2022-09-11T14:14:20.256Z,60.40
2022-09-11T14:16:53.125Z,60.20
2022-09-11T14:19:26.724Z,60.00
2022-09-11T14:21:53.857Z,60.20
2022-09-11T14:24:36.225Z,60.50
2022-09-11T14:27:24.245Z,60.80
2022-09-11T14:29:55.539Z,61.10
2022-09-11T14:32:33.847Z,61.30
2022-09-11T14:35:08.842Z,61.40
2022-09-11T14:37:43.597Z,61.60
2022-09-11T14:40:19.796Z,61.80
2022-09-11T14:42:47.810Z,62.10
2022-09-11T14:45:24.456Z,62.30
2022-09-11T14:47:51.489Z,62.90
2022-09-11T14:50:18.541Z,63.60
2022-09-11T14:52:46.398Z,64.00
2022-09-11T14:55:18.250Z,64.40
2022-09-11T14:57:46.547Z,64.40
2022-09-11T15:00:15.122Z,64.50
2022-09-11T15:02:42.111Z,64.40
2022-09-11T15:05:22.933Z,64.50
2022-09-11T15:07:49.713Z,64.90
2022-09-11T15:10:16.465Z,65.40
2022-09-11T15:12:44.479Z,65.90
2022-09-11T15:15:11.646Z,66.40
2022-09-11T15:17:38.725Z,66.90
2022-09-11T15:20:07.910Z,67.40
2022-09-11T15:22:35.335Z,67.60
2022-09-11T15:25:02.186Z,67.80
2022-09-11T15:27:28.957Z,68.00
2022-09-11T15:29:55.792Z,68.10
2022-09-11T15:32:22.834Z,68.10
2022-09-11T15:34:49.493Z,68.40
2022-09-11T15:37:16.965Z,68.50
2022-09-11T15:39:43.985Z,68.80
2022-09-11T15:42:11.728Z,68.90
2022-09-11T15:44:38.573Z,69.10
2022-09-11T15:47:06.200Z,69.30
2022-09-11T15:49:32.991Z,69.40
2022-09-11T15:52:01.242Z,69.50
2022-09-11T15:54:28.162Z,69.60
2022-09-11T15:56:55.149Z,69.80
2022-09-11T15:59:22.497Z,69.90
2022-09-11T16:01:49.752Z,70.00
2022-09-11T16:04:20.163Z,70.10
2022-09-11T16:06:48.382Z,70.20
2022-09-11T16:09:18.504Z,70.30
2022-09-11T16:11:47.768Z,70.30
2022-09-11T16:14:25.891Z,70.50
2022-09-11T16:16:54.369Z,70.50
2022-09-11T16:19:27.431Z,70.60
2022-09-11T16:21:56.474Z,70.70
2022-09-11T16:24:25.492Z,70.70
2022-09-11T16:26:55.911Z,70.80
2022-09-11T16:29:25.596Z,70.90
2022-09-11T16:31:52.578Z,70.90
2022-09-11T16:34:19.373Z,71.00
2022-09-11T16:36:46.307Z,70.90
2022-09-11T16:39:19.422Z,70.90
2022-09-11T16:41:46.279Z,71.00
2022-09-11T16:44:14.882Z,71.00
2022-09-11T16:46:42.371Z,71.10
2022-09-11T16:49:15.438Z,71.20
2022-09-11T16:51:42.771Z,71.20
2022-09-11T16:54:09.980Z,71.20
2022-09-11T16:56:36.764Z,71.30
2022-09-11T16:59:03.928Z,71.40
2022-09-11T17:01:30.926Z,71.40
2022-09-11T17:03:58.152Z,71.40
2022-09-11T17:06:30.236Z,71.40
2022-09-11T17:09:00.016Z,71.30
2022-09-11T17:11:28.456Z,71.40
2022-09-11T17:13:55.897Z,71.50
2022-09-11T17:16:26.224Z,71.50
2022-09-11T17:18:56.659Z,71.50
2022-09-11T17:21:24.755Z,71.50
2022-09-11T17:23:53.595Z,71.60
2022-09-11T17:26:20.526Z,71.60
2022-09-11T17:28:49.288Z,71.70
2022-09-11T17:31:19.109Z,71.70
2022-09-11T17:33:46.588Z,71.80
2022-09-11T17:36:16.985Z,71.90
2022-09-11T17:38:45.278Z,72.40
2022-09-11T17:41:12.364Z,71.90
2022-09-11T17:43:39.493Z,72.00
2022-09-11T17:46:12.228Z,72.00
2022-09-11T17:48:39.898Z,72.10
2022-09-11T17:51:16.425Z,72.00
2022-09-11T17:53:46.152Z,72.10
2022-09-11T17:56:16.549Z,72.10
2022-09-11T17:58:45.047Z,72.10
2022-09-11T18:01:16.714Z,72.10
2022-09-11T18:03:44.222Z,72.10
2022-09-11T18:06:17.717Z,72.10
2022-09-11T18:08:46.225Z,72.10
2022-09-11T18:11:13.092Z,72.10
2022-09-11T18:13:39.856Z,72.20
2022-09-11T18:16:11.278Z,72.20
2022-09-11T18:18:41.787Z,72.20
2022-09-11T18:21:10.528Z,72.20
2022-09-11T18:23:42.919Z,72.30
2022-09-11T18:26:19.860Z,72.30
2022-09-11T18:28:46.877Z,72.30
2022-09-11T18:31:13.859Z,72.30
2022-09-11T18:33:40.687Z,72.40
2022-09-11T18:36:13.414Z,72.40
2022-09-11T18:38:40.414Z,72.40
2022-09-11T18:41:07.285Z,72.60
2022-09-11T18:43:34.108Z,72.40
2022-09-11T18:46:02.801Z,72.40
2022-09-11T18:48:29.566Z,72.40
2022-09-11T18:50:56.552Z,72.40
2022-09-11T18:53:23.343Z,72.40
2022-09-11T18:56:00.371Z,72.40
2022-09-11T18:58:39.887Z,72.40
2022-09-11T19:01:13.973Z,72.40
2022-09-11T19:03:42.136Z,72.50
2022-09-11T19:06:14.736Z,72.50
2022-09-11T19:08:43.187Z,72.50
2022-09-11T19:11:16.650Z,72.40
2022-09-11T19:13:45.261Z,72.40
2022-09-11T19:16:12.994Z,72.40
2022-09-11T19:18:40.205Z,72.40
2022-09-11T19:21:10.297Z,72.50
2022-09-11T19:23:42.535Z,72.50
2022-09-11T19:26:16.387Z,72.40
2022-09-11T19:28:44.912Z,72.40
2022-09-11T19:31:14.085Z,72.40
2022-09-11T19:33:42.004Z,72.40
2022-09-11T19:36:12.186Z,72.40
2022-09-11T19:38:42.764Z,72.40
2022-09-11T19:41:12.681Z,72.40
2022-09-11T19:43:41.010Z,72.50
2022-09-11T19:46:10.944Z,72.50
2022-09-11T19:48:38.145Z,72.50
2022-09-11T19:51:09.769Z,72.40
2022-09-11T19:53:37.140Z,72.50
2022-09-11T19:56:03.988Z,72.50
2022-09-11T19:58:31.572Z,72.50
2022-09-11T20:01:00.310Z,72.50
2022-09-11T20:03:27.300Z,72.50
2022-09-11T20:05:54.455Z,72.50
2022-09-11T20:08:21.225Z,72.50
2022-09-11T20:10:48.853Z,72.50
2022-09-11T20:13:15.923Z,72.50
2022-09-11T20:15:42.613Z,72.60
2022-09-11T20:18:09.488Z,72.60
2022-09-11T20:20:36.915Z,72.60
2022-09-11T20:23:04.904Z,72.50
2022-09-11T20:25:31.603Z,72.60
2022-09-11T20:28:01.760Z,72.60
2022-09-11T20:30:32.571Z,72.60
2022-09-11T20:33:00.653Z,72.60
2022-09-11T20:35:27.478Z,72.60
2022-09-11T20:37:54.369Z,72.70
2022-09-11T20:40:21.136Z,72.70
2022-09-11T20:42:47.864Z,72.70
2022-09-11T20:45:14.696Z,72.70
2022-09-11T20:47:41.483Z,72.70
2022-09-11T20:50:09.158Z,72.70
2022-09-11T20:52:39.329Z,72.80
2022-09-11T20:55:07.206Z,72.70
2022-09-11T20:57:33.929Z,72.70
2022-09-11T21:00:00.944Z,72.70
2022-09-11T21:02:27.856Z,72.70
2022-09-11T21:04:54.646Z,72.70
2022-09-11T21:07:21.436Z,72.70
2022-09-11T21:09:48.181Z,72.70
2022-09-11T21:12:14.857Z,72.70
2022-09-11T21:14:43.093Z,72.70
2022-09-11T21:17:09.821Z,72.70
2022-09-11T21:19:36.626Z,72.70
2022-09-11T21:22:03.372Z,72.70
2022-09-11T21:24:30.166Z,72.70
2022-09-11T21:26:56.902Z,72.70
2022-09-11T21:29:23.755Z,72.80
2022-09-11T21:31:50.902Z,72.80
2022-09-11T21:34:17.815Z,72.80
2022-09-11T21:36:44.624Z,72.70
2022-09-11T21:39:12.014Z,72.80
2022-09-11T21:41:38.744Z,72.70
2022-09-11T21:44:05.515Z,72.80
2022-09-11T21:46:32.427Z,72.80
2022-09-11T21:48:59.220Z,72.80
2022-09-11T21:51:25.944Z,72.80
2022-09-11T21:53:58.772Z,72.80
2022-09-11T21:56:29.538Z,72.80
2022-09-11T21:58:56.667Z,72.80
2022-09-11T22:01:25.141Z,72.80
2022-09-11T22:03:52.283Z,72.70
2022-09-11T22:06:20.494Z,72.80
2022-09-11T22:08:47.415Z,72.70
2022-09-11T22:11:15.446Z,72.80
2022-09-11T22:13:42.960Z,72.70
2022-09-11T22:16:12.921Z,72.70
2022-09-11T22:18:40.830Z,72.80
2022-09-11T22:21:08.402Z,72.80
2022-09-11T22:23:35.461Z,72.80
2022-09-11T22:26:05.060Z,72.80
2022-09-11T22:28:31.896Z,72.80
2022-09-11T22:30:58.635Z,72.80
2022-09-11T22:33:25.486Z,72.80
2022-09-11T22:35:52.256Z,72.80
2022-09-11T22:38:18.975Z,72.80
2022-09-11T22:40:51.813Z,72.70
2022-09-11T22:43:18.492Z,72.80
2022-09-11T22:45:52.441Z,72.80
2022-09-11T22:48:19.507Z,72.80
2022-09-11T22:50:46.200Z,72.70
2022-09-11T22:53:13.007Z,72.80
2022-09-11T22:55:46.670Z,72.70
2022-09-11T22:58:13.636Z,72.70
2022-09-11T23:00:41.196Z,72.80
2022-09-11T23:03:08.325Z,72.70
2022-09-11T23:05:53.733Z,73.20
2022-09-11T23:08:20.906Z,72.70
2022-09-11T23:10:47.732Z,72.70
2022-09-11T23:13:14.924Z,72.70
2022-09-11T23:15:41.653Z,72.80
2022-09-11T23:18:09.175Z,72.70
2022-09-11T23:20:36.051Z,72.80
2022-09-11T23:23:04.065Z,72.70
2022-09-11T23:25:31.660Z,72.80
2022-09-11T23:27:58.411Z,72.70
2022-09-11T23:30:25.150Z,72.70
2022-09-11T23:32:53.685Z,72.70
2022-09-11T23:35:20.368Z,72.80
2022-09-11T23:37:47.053Z,72.70
2022-09-11T23:40:13.775Z,72.70
2022-09-11T23:42:40.471Z,72.70
2022-09-11T23:45:07.710Z,72.70
2022-09-11T23:47:34.479Z,72.70
2022-09-11T23:50:02.096Z,72.70
2022-09-11T23:52:29.183Z,72.70
2022-09-11T23:54:55.943Z,72.70
2022-09-11T23:57:22.670Z,73.10
2022-09-11T23:59:49.367Z,72.70
